Time;durP1;ratioP1;P1;durP2;ratioP2;P2;SDS_P1;SDS_P2;PMS_P1;PMS_P2;Temp;Humidity;BMP_temperature;BMP_pressure;BME280_temperature;BME280_humidity;BME280_pressure;Samples;Min_cycle;Max_cycle;Signal;HPM_P1;HPM_P2
2021/09/15 00:00:12;;;;;;;;;45.00;38.00;32.00;28.70;;;;;;705647;27;6544;-84
2021/09/15 00:00:33;;;;;;;;;48.40;40.00;;;;;;;;705554;27;6010;-82
2021/09/15 00:00:54;;;;;;;;;45.00;38.40;32.00;28.70;;;;;;702494;28;6085;-80
2021/09/15 00:01:14;;;;;;;;;38.00;33.60;32.00;28.70;;;;;;702879;28;6040;-84
2021/09/15 00:01:35;;;;;;;;;43.00;36.50;32.00;28.60;;;;;;703441;27;5856;-82
2021/09/15 00:01:56;;;;;;;;;45.40;39.00;;;;;;;;705678;27;5963;-80
2021/09/15 00:02:17;;;;;;;;;41.60;35.80;32.00;28.80;;;;;;705605;27;6056;-81
2021/09/15 00:02:37;;;;;;;;;47.00;39.00;32.00;28.80;;;;;;706184;27;6668;-80
2021/09/15 00:02:58;;;;;;;;;46.25;39.25;32.00;28.90;;;;;;708669;27;6550;-81
2021/09/15 00:03:19;;;;;;;;;48.60;41.60;32.00;28.80;;;;;;708814;27;5978;-79
2021/09/15 00:03:40;;;;;;;;;45.00;38.25;32.00;28.80;;;;;;708729;27;5878;-79
2021/09/15 00:04:01;;;;;;;;;45.50;39.00;32.00;28.80;;;;;;708173;27;5767;-80
2021/09/15 00:04:21;;;;;;;;;42.00;36.20;32.00;28.80;;;;;;708510;27;5974;-81
2021/09/15 00:04:42;;;;;;;;;46.75;39.25;32.10;28.80;;;;;;708218;27;5763;-81
2021/09/15 00:05:04;;;;;;;;;44.33;37.00;32.00;28.80;;;;;;706748;27;5775;-79
2021/09/15 00:05:24;;;;;;;;;47.00;40.25;32.10;28.80;;;;;;706484;27;6706;-80
2021/09/15 00:05:47;;;;;;;;;42.50;35.25;32.00;28.70;;;;;;705831;27;6516;-80
2021/09/15 00:06:07;;;;;;;;;47.40;40.00;34.20;30.00;;;;;;705793;27;6336;-81
2021/09/15 00:06:28;;;;;;;;;45.00;38.00;32.10;28.80;;;;;;702631;27;5715;-79
2021/09/15 00:06:49;;;;;;;;;47.00;40.00;32.10;28.80;;;;;;703251;27;5995;-80
2021/09/15 00:07:10;;;;;;;;;49.00;40.00;;;;;;;;705509;27;5858;-79
2021/09/15 00:07:31;;;;;;;;;43.20;36.60;32.10;28.80;;;;;;705149;27;6527;-80
2021/09/15 00:07:52;;;;;;;;;46.80;39.20;30.00;27.60;;;;;;705014;27;6061;-80
2021/09/15 00:08:13;;;;;;;;;45.00;39.00;32.00;28.70;;;;;;706011;27;6225;-78
2021/09/15 00:08:34;;;;;;;;;47.00;40.00;;;;;;;;708427;27;5879;-80
2021/09/15 00:08:55;;;;;;;;;46.40;39.00;;;;;;;;706716;27;6132;-80
2021/09/15 00:09:16;;;;;;;;;44.00;36.40;32.10;28.80;;;;;;705553;27;6542;-80
2021/09/15 00:09:37;;;;;;;;;46.50;38.50;;;;;;;;705800;27;6510;-80
2021/09/15 00:09:58;;;;;;;;;47.20;39.40;;;;;;;;702597;27;5950;-78
2021/09/15 00:10:19;;;;;;;;;46.80;39.80;32.00;28.70;;;;;;702587;27;5793;-79
2021/09/15 00:10:40;;;;;;;;;50.00;41.25;;;;;;;;703089;28;5708;-78
2021/09/15 00:11:01;;;;;;;;;48.60;38.60;32.10;28.70;;;;;;702650;27;6521;-79
2021/09/15 00:11:26;;;;;;;;;53.00;42.00;32.00;28.70;;;;;;702731;27;5720;-80
2021/09/15 00:11:46;;;;;;;;;45.25;39.00;32.10;28.80;;;;;;702684;28;6057;-80
2021/09/15 00:12:07;;;;;;;;;49.75;41.50;32.10;28.80;;;;;;703061;27;5957;-79
2021/09/15 00:12:28;;;;;;;;;47.20;37.00;32.10;28.80;;;;;;702623;27;5840;-78
2021/09/15 00:12:49;;;;;;;;;48.00;40.00;32.10;28.70;;;;;;702841;28;5994;-79
2021/09/15 00:13:09;;;;;;;;;48.00;40.00;32.00;28.60;;;;;;703667;27;6105;-78
2021/09/15 00:13:30;;;;;;;;;47.25;40.00;32.00;28.70;;;;;;705776;27;5883;-79
2021/09/15 00:13:51;;;;;;;;;51.00;41.00;32.00;28.60;;;;;;705850;27;5895;-79
2021/09/15 00:14:11;;;;;;;;;46.00;39.60;32.10;29.50;;;;;;705723;27;5891;-79
2021/09/15 00:14:32;;;;;;;;;50.00;41.50;32.00;28.70;;;;;;699834;28;5715;-78
2021/09/15 00:14:53;;;;;;;;;47.20;39.20;32.00;28.70;;;;;;699889;28;5819;-79
2021/09/15 00:15:14;;;;;;;;;44.00;37.00;32.00;28.70;;;;;;699859;28;5847;-80
2021/09/15 00:15:35;;;;;;;;;45.00;37.20;32.00;28.70;;;;;;699707;28;5930;-78
2021/09/15 00:15:56;;;;;;;;;47.00;39.00;32.00;29.50;;;;;;699706;28;5907;-79
2021/09/15 00:16:17;;;;;;;;;46.40;39.40;;;;;;;;700388;28;6010;-77
2021/09/15 00:16:38;;;;;;;;;47.00;39.25;32.00;28.80;;;;;;702878;27;5815;-79
2021/09/15 00:16:59;;;;;;;;;44.67;37.33;;;;;;;;702636;28;5323;-79
2021/09/15 00:17:20;;;;;;;;;45.00;37.00;32.00;28.70;;;;;;702647;27;5936;-82
2021/09/15 00:17:41;;;;;;;;;46.50;39.00;;;;;;;;703546;27;5719;-78
2021/09/15 00:18:02;;;;;;;;;43.00;37.20;32.00;28.70;;;;;;705742;27;6007;-79
2021/09/15 00:18:22;;;;;;;;;44.00;37.60;32.00;28.70;;;;;;705662;27;6102;-80
2021/09/15 00:18:43;;;;;;;;;44.00;36.50;32.00;28.70;;;;;;705994;27;5827;-79
2021/09/15 00:19:04;;;;;;;;;44.25;36.25;;;;;;;;706225;27;5891;-78
2021/09/15 00:19:25;;;;;;;;;44.00;37.75;;;;;;;;705865;27;6526;-80
2021/09/15 00:19:46;;;;;;;;;44.00;37.40;;;;;;;;705722;27;5895;-82
2021/09/15 00:20:08;;;;;;;;;44.00;37.00;32.00;28.70;;;;;;706068;27;5826;-79
2021/09/15 00:20:29;;;;;;;;;44.40;37.20;32.00;29.50;;;;;;705816;27;6393;-80
2021/09/15 00:20:50;;;;;;;;;44.25;37.75;32.00;29.40;;;;;;705881;27;5804;-78
2021/09/15 00:21:11;;;;;;;;;46.80;39.80;;;;;;;;705902;27;5876;-79
2021/09/15 00:21:32;;;;;;;;;43.50;37.00;32.00;28.60;;;;;;705836;27;5838;-78
2021/09/15 00:21:53;;;;;;;;;40.00;35.00;;;;;;;;706797;27;6063;-82
2021/09/15 00:22:14;;;;;;;;;39.00;35.00;32.00;28.60;;;;;;707822;27;5569;-80
2021/09/15 00:22:34;;;;;;;;;46.75;39.00;32.00;28.60;;;;;;708647;27;5871;-80
2021/09/15 00:22:55;;;;;;;;;47.25;37.00;31.90;28.60;;;;;;708592;27;5782;-80
2021/09/15 00:23:16;;;;;;;;;43.00;36.00;32.00;28.60;;;;;;704992;27;5935;-80
2021/09/15 00:23:36;;;;;;;;;43.20;37.00;32.00;29.40;;;;;;705509;27;6070;-81
2021/09/15 00:23:57;;;;;;;;;48.67;41.00;32.00;29.40;;;;;;705616;27;5861;-81
2021/09/15 00:24:18;;;;;;;;;41.20;35.20;32.00;29.50;;;;;;705504;27;5993;-80
2021/09/15 00:24:39;;;;;;;;;44.40;37.80;32.00;29.40;;;;;;705740;27;6028;-79
2021/09/15 00:24:59;;;;;;;;;46.00;38.00;32.00;28.60;;;;;;705923;27;5970;-81
2021/09/15 00:25:20;;;;;;;;;44.00;36.00;32.00;28.60;;;;;;708503;27;5819;-81
2021/09/15 00:25:41;;;;;;;;;39.80;34.20;32.00;28.60;;;;;;708729;27;6026;-81
2021/09/15 00:26:02;;;;;;;;;49.00;40.00;32.00;29.30;;;;;;708800;27;5932;-81
2021/09/15 00:26:22;;;;;;;;;49.50;40.00;32.00;28.50;;;;;;708343;27;5879;-81
2021/09/15 00:26:43;;;;;;;;;46.00;39.00;32.00;29.40;;;;;;708633;27;5783;-81
2021/09/15 00:27:06;;;;;;;;;47.20;38.00;;;;;;;;705800;27;5942;-81
2021/09/15 00:27:27;;;;;;;;;48.40;39.80;;;;;;;;705878;27;6524;-81
2021/09/15 00:27:48;;;;;;;;;47.50;40.00;;;;;;;;708566;27;5846;-82
2021/09/15 00:28:08;;;;;;;;;46.20;38.00;32.00;28.50;;;;;;708649;27;5961;-82
2021/09/15 00:28:29;;;;;;;;;42.80;35.80;32.10;28.60;;;;;;708599;27;5971;-81
2021/09/15 00:28:50;;;;;;;;;46.00;38.00;32.00;29.40;;;;;;708677;27;5883;-82
2021/09/15 00:29:10;;;;;;;;;43.25;35.25;32.00;28.50;;;;;;705184;27;6624;-83
2021/09/15 00:29:34;;;;;;;;;47.00;38.00;32.00;29.30;;;;;;702381;28;5823;-80
2021/09/15 00:29:54;;;;;;;;;46.50;37.50;32.00;28.50;;;;;;699628;28;6607;-79
2021/09/15 00:30:16;;;;;;;;;43.00;36.33;32.00;28.50;;;;;;699744;28;5923;-82
2021/09/15 00:30:36;;;;;;;;;45.75;39.00;32.00;29.30;;;;;;699930;28;5795;-82
2021/09/15 00:30:57;;;;;;;;;45.50;39.25;32.00;28.50;;;;;;700651;28;6144;-81
2021/09/15 00:31:18;;;;;;;;;46.25;39.25;32.00;28.50;;;;;;703537;27;6527;-81
2021/09/15 00:31:38;;;;;;;;;44.50;37.00;32.00;29.40;;;;;;705505;27;6128;-82
2021/09/15 00:31:59;;;;;;;;;43.40;36.40;32.00;29.30;;;;;;706371;27;6029;-82
2021/09/15 00:32:20;;;;;;;;;46.00;38.25;32.00;28.50;;;;;;705496;27;5895;-82
2021/09/15 00:32:41;;;;;;;;;45.75;38.00;32.00;28.50;;;;;;705711;27;5788;-82
2021/09/15 00:33:01;;;;;;;;;44.75;38.25;32.00;28.50;;;;;;705608;27;5804;-82
2021/09/15 00:33:22;;;;;;;;;48.00;39.33;32.00;28.50;;;;;;705482;27;5828;-82
2021/09/15 00:33:43;;;;;;;;;49.75;41.00;32.00;28.40;;;;;;705630;27;6825;-82
2021/09/15 00:34:04;;;;;;;;;43.00;37.25;;;;;;;;705645;27;6484;-83
2021/09/15 00:34:29;;;;;;;;;46.50;37.50;32.10;28.50;;;;;;705726;27;5909;-78
2021/09/15 00:34:50;;;;;;;;;46.60;39.20;32.00;29.30;;;;;;705676;27;6344;-81
2021/09/15 00:35:11;;;;;;;;;44.75;38.00;32.00;28.50;;;;;;705852;27;5856;-79
2021/09/15 00:35:32;;;;;;;;;43.75;37.75;32.10;28.60;;;;;;705592;27;6413;-81
2021/09/15 00:35:53;;;;;;;;;43.25;37.25;32.10;29.00;;;;;;705647;27;5806;-80
2021/09/15 00:36:14;;;;;;;;;40.75;35.00;31.40;28.90;;;;;;706021;27;6234;-82
2021/09/15 00:36:35;;;;;;;;;43.40;35.40;32.10;28.40;;;;;;705706;27;5941;-81
2021/09/15 00:36:56;;;;;;;;;39.00;35.00;32.10;29.30;;;;;;705520;27;5913;-80
2021/09/15 00:37:17;;;;;;;;;44.50;37.50;32.10;29.10;;;;;;705670;27;6406;-78
2021/09/15 00:37:39;;;;;;;;;44.00;37.00;32.10;28.40;;;;;;705726;27;5819;-81
2021/09/15 00:38:00;;;;;;;;;42.50;35.75;;;;;;;;705755;27;5801;-81
2021/09/15 00:38:20;;;;;;;;;46.40;38.40;32.10;28.40;;;;;;705377;27;5933;-78
2021/09/15 00:38:41;;;;;;;;;44.67;37.67;32.10;29.20;;;;;;705714;27;5808;-81
2021/09/15 00:39:02;;;;;;;;;45.80;39.00;32.10;29.10;;;;;;705652;27;7019;-80
2021/09/15 00:39:23;;;;;;;;;47.40;39.20;32.10;29.10;;;;;;705861;27;6083;-79
2021/09/15 00:39:44;;;;;;;;;44.20;35.60;32.00;28.30;;;;;;705033;27;5926;-80
2021/09/15 00:40:06;;;;;;;;;41.75;36.75;32.00;28.30;;;;;;705449;27;6514;-79
2021/09/15 00:40:27;;;;;;;;;46.60;39.60;32.10;29.20;;;;;;705300;27;6156;-78
2021/09/15 00:40:48;;;;;;;;;44.75;37.50;32.00;29.20;;;;;;702212;28;6047;-78
2021/09/15 00:41:09;;;;;;;;;48.00;38.80;32.00;28.40;;;;;;702629;28;5873;-79
2021/09/15 00:41:29;;;;;;;;;40.80;33.00;32.10;28.40;;;;;;703089;27;5990;-79
2021/09/15 00:41:50;;;;;;;;;40.67;35.67;32.10;28.40;;;;;;705598;27;5815;-79
2021/09/15 00:42:11;;;;;;;;;43.40;37.00;32.00;28.30;;;;;;704445;27;5961;-79
2021/09/15 00:42:32;;;;;;;;;41.00;36.00;;;;;;;;705760;27;5767;-80
2021/09/15 00:42:53;;;;;;;;;43.00;36.25;32.00;28.30;;;;;;708567;27;6777;-79
2021/09/15 00:43:13;;;;;;;;;38.25;33.00;32.00;28.30;;;;;;708653;27;5831;-79
2021/09/15 00:44:02;;;;;;;;;40.20;35.00;32.10;28.40;;;;;;708423;27;5879;-79
2021/09/15 00:44:23;;;;;;;;;45.75;38.25;32.10;29.10;;;;;;708326;27;6623;-79
2021/09/15 00:44:44;;;;;;;;;41.75;34.00;;;;;;;;708550;27;5863;-80
2021/09/15 00:45:06;;;;;;;;;41.60;35.40;32.10;28.30;;;;;;707755;27;6336;-79
2021/09/15 00:45:26;;;;;;;;;45.25;38.50;32.10;28.20;;;;;;708054;27;5958;-78
2021/09/15 00:45:47;;;;;;;;;43.40;36.00;32.10;28.20;;;;;;706688;27;6091;-79
2021/09/15 00:46:08;;;;;;;;;44.00;35.80;32.10;29.10;;;;;;705727;27;6042;-78
2021/09/15 00:46:29;;;;;;;;;43.00;35.75;32.10;28.10;;;;;;705489;27;6062;-79
2021/09/15 00:46:51;;;;;;;;;45.00;38.00;32.10;29.00;;;;;;705479;27;5941;-79
2021/09/15 00:47:11;;;;;;;;;41.60;35.00;32.10;28.10;;;;;;705729;27;5987;-78
2021/09/15 00:47:32;;;;;;;;;40.00;32.60;32.10;28.90;;;;;;705430;27;6565;-78
2021/09/15 00:47:53;;;;;;;;;39.00;33.00;32.10;28.80;;;;;;703961;27;5971;-78
2021/09/15 00:48:14;;;;;;;;;46.00;38.00;32.10;28.00;;;;;;699719;28;6034;-77
2021/09/15 00:48:34;;;;;;;;;45.40;38.00;32.20;28.10;;;;;;699837;28;6004;-78
2021/09/15 00:48:55;;;;;;;;;41.25;34.25;32.10;28.80;;;;;;699731;28;6083;-78
2021/09/15 00:49:16;;;;;;;;;45.75;38.00;32.20;29.10;;;;;;700092;28;6131;-77
2021/09/15 00:49:36;;;;;;;;;43.20;37.20;32.20;28.70;;;;;;702664;28;7152;-78
2021/09/15 00:49:58;;;;;;;;;40.00;34.75;;;;;;;;703180;27;5849;-78
2021/09/15 00:50:18;;;;;;;;;40.60;35.40;32.20;28.10;;;;;;707054;27;6261;-79
2021/09/15 00:50:40;;;;;;;;;41.25;35.00;32.10;28.10;;;;;;708201;27;5838;-78
2021/09/15 00:51:02;;;;;;;;;48.00;38.00;;;;;;;;705193;27;6335;-78
2021/09/15 00:51:23;;;;;;;;;46.00;39.40;32.20;28.10;;;;;;705660;27;5907;-78
2021/09/15 00:51:44;;;;;;;;;42.00;35.75;33.80;29.00;;;;;;705742;27;5886;-79
2021/09/15 00:52:05;;;;;;;;;44.50;37.50;32.20;27.90;;;;;;706577;27;5976;-78
2021/09/15 00:52:27;;;;;;;;;38.60;34.40;32.20;28.70;;;;;;708490;27;6253;-78
2021/09/15 00:52:48;;;;;;;;;39.20;34.00;32.20;28.60;;;;;;704383;27;8224;-80
2021/09/15 00:53:09;;;;;;;;;43.50;36.25;32.20;28.80;;;;;;705314;27;5852;-79
2021/09/15 00:53:29;;;;;;;;;43.00;34.00;32.20;27.90;;;;;;705407;27;5861;-78
2021/09/15 00:53:51;;;;;;;;;37.50;34.00;32.20;28.80;;;;;;702433;28;5896;-79
2021/09/15 00:54:15;;;;;;;;;41.20;35.40;32.20;28.70;;;;;;702608;28;6326;-79
2021/09/15 00:54:35;;;;;;;;;44.00;36.40;32.20;28.80;;;;;;703216;27;6381;-79
2021/09/15 00:54:56;;;;;;;;;43.50;36.00;32.20;28.80;;;;;;703967;27;5429;-79
2021/09/15 00:55:18;;;;;;;;;41.00;35.00;32.20;28.70;;;;;;704805;27;5898;-79
2021/09/15 00:55:39;;;;;;;;;39.20;34.60;32.20;28.60;;;;;;703682;27;6401;-79
2021/09/15 00:56:01;;;;;;;;;43.25;36.75;32.20;28.80;;;;;;705605;27;5928;-79
2021/09/15 00:56:22;;;;;;;;;44.50;37.75;32.20;28.60;;;;;;705734;27;6401;-78
2021/09/15 00:56:45;;;;;;;;;43.50;38.00;32.20;27.90;;;;;;706826;27;6151;-78
2021/09/15 00:57:05;;;;;;;;;38.40;34.00;32.20;28.70;;;;;;708551;27;6572;-78
2021/09/15 00:57:26;;;;;;;;;39.75;35.00;32.10;27.70;;;;;;708411;27;5851;-79
2021/09/15 00:57:47;;;;;;;;;42.50;36.00;32.20;27.80;;;;;;708385;27;6690;-78
2021/09/15 00:58:07;;;;;;;;;43.25;37.00;32.20;28.00;;;;;;708589;27;6146;-78
2021/09/15 00:58:28;;;;;;;;;39.50;34.00;32.20;28.80;;;;;;708134;27;6054;-78
2021/09/15 00:58:50;;;;;;;;;41.67;35.00;32.20;28.70;;;;;;705530;27;5805;-78
2021/09/15 00:59:11;;;;;;;;;45.00;37.40;32.20;28.00;;;;;;705627;27;6300;-78
2021/09/15 00:59:32;;;;;;;;;39.60;33.00;32.20;28.60;;;;;;702614;27;7162;-79
2021/09/15 00:59:53;;;;;;;;;43.75;38.00;32.20;28.00;;;;;;702621;28;5954;-78
2021/09/15 01:00:14;;;;;;;;;45.00;38.75;32.00;27.90;;;;;;704049;27;5966;-78
2021/09/15 01:00:35;;;;;;;;;41.60;36.40;32.10;27.90;;;;;;702382;27;6544;-78
2021/09/15 01:00:55;;;;;;;;;44.50;38.00;32.20;28.70;;;;;;704406;27;5673;-79
2021/09/15 01:01:16;;;;;;;;;43.50;37.25;32.20;28.70;;;;;;705462;27;6031;-78
2021/09/15 01:01:37;;;;;;;;;41.75;36.00;32.20;28.90;;;;;;704190;27;5994;-78
2021/09/15 01:01:57;;;;;;;;;41.00;35.00;32.20;28.00;;;;;;705253;27;6200;-79
2021/09/15 01:02:18;;;;;;;;;40.75;34.25;32.10;28.00;;;;;;703105;27;5921;-79
2021/09/15 01:02:39;;;;;;;;;43.50;35.00;32.20;28.80;;;;;;702627;27;6028;-79
2021/09/15 01:03:00;;;;;;;;;44.00;35.00;32.20;28.70;;;;;;702415;28;5821;-78
2021/09/15 01:03:20;;;;;;;;;44.00;37.50;32.20;28.60;;;;;;700253;28;5734;-78
2021/09/15 01:03:41;;;;;;;;;41.50;35.00;32.20;28.60;;;;;;702454;27;5813;-78
2021/09/15 01:04:03;;;;;;;;;39.00;34.00;32.20;28.00;;;;;;702472;28;5832;-77
2021/09/15 01:04:24;;;;;;;;;42.25;35.00;33.10;29.20;;;;;;702460;27;6229;-78
2021/09/15 01:04:45;;;;;;;;;42.25;35.75;32.20;28.00;;;;;;699789;28;6661;-78
2021/09/15 01:05:07;;;;;;;;;40.00;34.00;32.10;27.90;;;;;;700264;28;6468;-78
2021/09/15 01:05:28;;;;;;;;;37.75;33.75;;;;;;;;702309;27;6475;-78
2021/09/15 01:05:49;;;;;;;;;38.60;34.60;32.20;27.90;;;;;;702303;27;7330;-80
2021/09/15 01:06:10;;;;;;;;;37.40;33.00;32.20;28.60;;;;;;702921;27;5946;-78
2021/09/15 01:06:33;;;;;;;;;42.40;37.40;32.20;28.60;;;;;;702902;27;6148;-78
2021/09/15 01:06:55;;;;;;;;;37.60;34.00;32.20;29.10;;;;;;704692;27;6969;-78
2021/09/15 01:07:15;;;;;;;;;44.40;36.40;32.10;28.00;;;;;;705497;27;6535;-78
2021/09/15 01:07:37;;;;;;;;;43.00;35.00;32.10;28.00;;;;;;705116;27;5947;-78
2021/09/15 01:07:59;;;;;;;;;37.00;33.00;32.20;27.90;;;;;;704682;27;6045;-79
2021/09/15 01:08:20;;;;;;;;;37.75;32.00;32.20;28.60;;;;;;705167;27;6897;-77
2021/09/15 01:08:41;;;;;;;;;41.00;34.00;32.10;27.80;;;;;;704957;27;6585;-77
2021/09/15 01:09:04;;;;;;;;;43.00;36.00;32.10;27.80;;;;;;704737;27;6719;-76
2021/09/15 01:09:25;;;;;;;;;41.80;33.00;32.10;28.60;;;;;;705081;27;6555;-78
2021/09/15 01:09:49;;;;;;;;;41.50;34.50;32.10;28.40;;;;;;703688;27;5883;-78
2021/09/15 01:10:11;;;;;;;;;43.00;36.50;32.20;28.70;;;;;;707285;27;6350;-78
2021/09/15 01:10:32;;;;;;;;;45.00;36.75;32.20;28.60;;;;;;708079;27;6138;-79
2021/09/15 01:10:54;;;;;;;;;45.25;37.00;32.20;28.70;;;;;;704961;27;8482;-76
2021/09/15 01:11:16;;;;;;;;;41.25;36.00;32.20;28.70;;;;;;705040;27;6061;-78
2021/09/15 01:11:38;;;;;;;;;37.40;33.80;32.10;28.60;;;;;;704996;27;6620;-76
2021/09/15 01:12:00;;;;;;;;;41.60;36.00;32.10;27.90;;;;;;704974;27;7369;-77
2021/09/15 01:12:21;;;;;;;;;38.50;33.50;32.10;28.60;;;;;;705132;27;6219;-77
2021/09/15 01:12:43;;;;;;;;;44.60;36.80;32.10;28.70;;;;;;705052;27;6430;-78
2021/09/15 01:13:04;;;;;;;;;43.25;36.00;32.10;29.10;;;;;;705427;27;6409;-77
2021/09/15 01:13:27;;;;;;;;;42.80;36.00;32.20;28.90;;;;;;706657;27;6517;-77
2021/09/15 01:13:48;;;;;;;;;39.00;35.00;32.10;28.60;;;;;;705716;27;6136;-79
2021/09/15 01:14:10;;;;;;;;;44.00;37.25;32.20;28.70;;;;;;708285;27;6389;-78
2021/09/15 01:14:31;;;;;;;;;42.25;35.00;32.10;28.50;;;;;;708233;27;6334;-78
2021/09/15 01:14:52;;;;;;;;;40.00;35.00;32.20;28.80;;;;;;705656;27;5891;-79
2021/09/15 01:15:13;;;;;;;;;43.00;36.00;32.10;28.30;;;;;;704093;27;6134;-77
2021/09/15 01:15:33;;;;;;;;;38.33;34.00;32.10;28.70;;;;;;704570;27;5900;-77
2021/09/15 01:15:54;;;;;;;;;37.00;32.00;32.10;29.60;;;;;;702556;28;5997;-87
2021/09/15 01:16:15;;;;;;;;;37.20;32.20;32.10;28.60;;;;;;702435;28;6109;-78
2021/09/15 01:16:56;;;;;;;;;41.25;35.25;32.20;28.70;;;;;;703217;27;5882;-78
2021/09/15 01:17:16;;;;;;;;;38.00;33.80;32.10;28.00;;;;;;707900;27;6182;-77
2021/09/15 01:17:37;;;;;;;;;38.75;33.75;32.10;28.80;;;;;;708739;27;5949;-76
2021/09/15 01:17:58;;;;;;;;;36.20;32.60;32.10;28.80;;;;;;708340;27;5996;-78
2021/09/15 01:18:19;;;;;;;;;37.20;33.20;32.10;28.80;;;;;;704718;27;6079;-77
2021/09/15 01:18:40;;;;;;;;;42.00;36.25;32.10;28.80;;;;;;705572;27;6505;-81
2021/09/15 01:19:01;;;;;;;;;39.50;35.00;32.10;28.90;;;;;;703684;27;6002;-75
2021/09/15 01:19:23;;;;;;;;;40.40;35.00;32.10;28.80;;;;;;705375;27;5945;-77
2021/09/15 01:19:44;;;;;;;;;37.60;32.00;32.10;28.80;;;;;;699893;28;8322;-78
2021/09/15 01:20:05;;;;;;;;;38.50;33.00;32.10;28.00;;;;;;700357;28;5949;-78
2021/09/15 01:20:26;;;;;;;;;42.40;36.40;32.10;28.80;;;;;;702374;28;6407;-78
2021/09/15 01:20:47;;;;;;;;;38.67;33.67;32.10;28.80;;;;;;702559;28;5879;-78
2021/09/15 01:21:09;;;;;;;;;35.00;32.00;32.10;29.70;;;;;;705167;27;6175;-79
2021/09/15 01:21:29;;;;;;;;;37.00;33.00;32.00;28.70;;;;;;706111;27;6126;-77
2021/09/15 01:21:51;;;;;;;;;39.00;33.25;32.10;28.80;;;;;;705021;27;5901;-77
2021/09/15 01:22:11;;;;;;;;;37.00;34.00;32.10;28.10;;;;;;702401;28;9025;-79
2021/09/15 01:22:32;;;;;;;;;37.60;34.40;32.10;28.90;;;;;;702433;28;5908;-79
2021/09/15 01:22:53;;;;;;;;;38.20;34.20;32.10;28.90;;;;;;702553;28;5940;-76
2021/09/15 01:23:14;;;;;;;;;35.50;33.00;32.00;28.80;;;;;;702650;28;6520;-77
2021/09/15 01:23:34;;;;;;;;;39.60;35.00;32.10;28.80;;;;;;703119;27;5940;-77
2021/09/15 01:23:55;;;;;;;;;39.00;33.50;32.10;28.80;;;;;;705722;27;5252;-76
2021/09/15 01:24:16;;;;;;;;;36.00;32.00;32.10;28.80;;;;;;708311;27;5940;-77
2021/09/15 01:24:37;;;;;;;;;37.60;33.00;32.10;28.80;;;;;;708383;27;6595;-78
2021/09/15 01:24:58;;;;;;;;;35.60;32.00;32.10;28.10;;;;;;707368;27;6014;-78
2021/09/15 01:25:18;;;;;;;;;37.00;32.00;32.00;28.00;;;;;;705528;27;5935;-78
2021/09/15 01:25:39;;;;;;;;;40.00;34.50;32.00;28.10;;;;;;705700;27;5548;-78
2021/09/15 01:26:00;;;;;;;;;42.00;36.00;32.10;28.80;;;;;;705761;27;5962;-78
2021/09/15 01:26:20;;;;;;;;;40.00;34.00;32.00;28.80;;;;;;705316;27;6524;-78
2021/09/15 01:26:41;;;;;;;;;39.20;34.60;32.00;28.80;;;;;;705279;27;5934;-78
2021/09/15 01:27:03;;;;;;;;;38.00;33.25;32.00;28.80;;;;;;705325;27;5877;-79
2021/09/15 01:27:23;;;;;;;;;39.50;34.50;32.10;28.80;;;;;;705322;27;6158;-78
2021/09/15 01:27:44;;;;;;;;;37.50;33.50;32.00;27.90;;;;;;705543;27;5832;-80
2021/09/15 01:28:05;;;;;;;;;35.60;32.60;32.00;28.00;;;;;;705353;27;6616;-78
2021/09/15 01:28:26;;;;;;;;;34.20;32.00;32.00;28.80;;;;;;704822;27;5913;-77
2021/09/15 01:28:47;;;;;;;;;39.00;34.00;32.00;27.80;;;;;;705151;27;6055;-77
2021/09/15 01:29:20;;;;;;;;;44.50;36.50;32.00;28.70;;;;;;705520;27;6531;-78
2021/09/15 01:29:41;;;;;;;;;38.00;33.75;32.00;28.80;;;;;;705553;27;6296;-77
2021/09/15 01:30:03;;;;;;;;;36.75;33.00;32.00;28.00;;;;;;705467;27;5809;-77
2021/09/15 01:30:24;;;;;;;;;36.00;33.00;32.00;28.80;;;;;;705360;27;7063;-78
2021/09/15 01:30:46;;;;;;;;;39.20;35.20;32.00;28.10;;;;;;705736;27;5996;-77
2021/09/15 01:31:06;;;;;;;;;34.50;32.00;32.00;28.90;;;;;;705166;27;8043;-78
2021/09/15 01:31:27;;;;;;;;;35.00;32.00;32.00;28.80;;;;;;705299;27;5804;-76
2021/09/15 01:32:10;;;;;;;;;33.00;31.00;32.00;28.80;;;;;;705386;27;5924;-78
2021/09/15 01:32:30;;;;;;;;;41.00;35.25;32.00;28.80;;;;;;705252;27;6506;-77
2021/09/15 01:32:51;;;;;;;;;37.00;33.40;32.00;28.60;;;;;;705283;27;6149;-78
2021/09/15 01:33:14;;;;;;;;;39.00;34.50;32.00;28.80;;;;;;705581;27;7036;-77
2021/09/15 01:33:35;;;;;;;;;39.60;33.20;32.00;28.80;;;;;;705435;27;6938;-78
2021/09/15 01:33:55;;;;;;;;;39.00;35.00;32.00;28.60;;;;;;705663;27;6120;-76
2021/09/15 01:34:16;;;;;;;;;36.67;32.67;32.00;28.60;;;;;;705514;27;6117;-78
2021/09/15 01:34:41;;;;;;;;;33.50;31.75;32.00;28.00;;;;;;705555;27;5922;-78
2021/09/15 01:35:01;;;;;;;;;36.60;32.40;32.00;27.90;;;;;;705279;27;6553;-77
2021/09/15 01:35:22;;;;;;;;;36.60;32.60;32.00;27.90;;;;;;705371;27;5919;-77
2021/09/15 01:35:44;;;;;;;;;36.20;33.20;32.00;28.30;;;;;;705607;27;5997;-77
2021/09/15 01:36:04;;;;;;;;;36.25;32.00;32.00;28.00;;;;;;704907;27;8244;-77
2021/09/15 01:36:25;;;;;;;;;35.00;32.50;32.00;28.00;;;;;;705418;27;5878;-77
2021/09/15 01:36:46;;;;;;;;;38.60;34.20;32.00;28.00;;;;;;705346;27;5919;-76
2021/09/15 01:37:08;;;;;;;;;43.00;36.00;32.00;28.00;;;;;;705494;27;5877;-76
2021/09/15 01:37:29;;;;;;;;;41.40;35.00;32.00;28.80;;;;;;705109;27;6207;-76
2021/09/15 01:37:50;;;;;;;;;37.00;33.00;32.00;28.70;;;;;;704361;27;6070;-77
2021/09/15 01:38:11;;;;;;;;;36.25;33.25;32.00;28.70;;;;;;705597;27;5821;-78
2021/09/15 01:38:32;;;;;;;;;40.25;33.75;31.90;27.90;;;;;;704602;27;5883;-76
2021/09/15 01:38:53;;;;;;;;;36.60;33.00;32.00;28.90;;;;;;705293;27;5907;-78
2021/09/15 01:39:13;;;;;;;;;45.00;35.50;31.50;28.50;;;;;;705372;27;5902;-78
2021/09/15 01:39:35;;;;;;;;;36.50;32.50;31.90;27.90;;;;;;705221;27;5897;-78
2021/09/15 01:39:55;;;;;;;;;37.50;33.00;32.00;28.60;;;;;;701927;28;8291;-77
2021/09/15 01:40:16;;;;;;;;;42.60;36.00;;;;;;;;701682;28;5899;-79
2021/09/15 01:40:38;;;;;;;;;38.50;35.00;;;;;;;;699253;28;6123;-79
2021/09/15 01:40:58;;;;;;;;;34.50;30.50;32.00;27.90;;;;;;699634;28;6009;-77
2021/09/15 01:41:19;;;;;;;;;37.00;32.00;32.00;28.50;;;;;;699511;28;6295;-77
2021/09/15 01:41:40;;;;;;;;;37.60;33.00;32.00;28.60;;;;;;700193;28;5941;-76
2021/09/15 01:42:04;;;;;;;;;34.50;32.00;32.00;28.70;;;;;;703003;27;5225;-80
2021/09/15 01:42:24;;;;;;;;;35.40;33.00;32.00;28.70;;;;;;705362;27;6194;-77
2021/09/15 01:42:45;;;;;;;;;39.00;33.00;32.00;28.70;;;;;;705560;27;5905;-78
2021/09/15 01:43:06;;;;;;;;;38.00;33.00;32.00;28.80;;;;;;705609;27;6520;-78
2021/09/15 01:43:27;;;;;;;;;37.60;34.60;32.00;28.80;;;;;;705432;27;5936;-77
2021/09/15 01:43:51;;;;;;;;;42.75;35.75;32.00;28.90;;;;;;705667;27;5914;-78
2021/09/15 01:44:12;;;;;;;;;39.00;34.50;31.90;28.80;;;;;;705417;27;6356;-78
2021/09/15 01:44:53;;;;;;;;;39.60;35.00;31.90;28.80;;;;;;705563;27;5973;-77
2021/09/15 01:45:13;;;;;;;;;36.00;33.00;31.90;28.80;;;;;;705092;27;6471;-78
2021/09/15 01:45:35;;;;;;;;;36.40;33.40;31.90;27.80;;;;;;705498;27;6556;-79
2021/09/15 01:45:56;;;;;;;;;37.00;33.00;31.90;27.90;;;;;;705415;27;6222;-77
2021/09/15 01:46:17;;;;;;;;;36.40;33.40;32.00;28.70;;;;;;705487;27;6161;-77
2021/09/15 01:46:37;;;;;;;;;35.75;33.00;31.90;27.80;;;;;;705328;27;5965;-76
2021/09/15 01:47:01;;;;;;;;;39.00;34.00;31.90;28.80;;;;;;704922;27;5892;-76
2021/09/15 01:47:22;;;;;;;;;37.40;33.00;31.90;28.70;;;;;;702352;28;7373;-79
2021/09/15 01:47:43;;;;;;;;;35.80;32.00;31.90;27.90;;;;;;703534;27;5991;-77
2021/09/15 01:48:04;;;;;;;;;36.00;33.00;31.90;27.90;;;;;;702709;27;5981;-76
2021/09/15 01:48:25;;;;;;;;;33.00;31.20;31.90;27.70;;;;;;702446;27;6831;-74
2021/09/15 01:48:45;;;;;;;;;34.00;32.00;31.90;27.90;;;;;;704422;27;6057;-77
2021/09/15 01:49:06;;;;;;;;;37.00;33.00;32.00;28.90;;;;;;706376;27;5790;-80
2021/09/15 01:49:28;;;;;;;;;32.00;30.25;31.90;28.70;;;;;;708308;27;5974;-79
2021/09/15 01:49:49;;;;;;;;;33.20;30.80;32.00;28.80;;;;;;708182;27;6319;-80
2021/09/15 01:50:10;;;;;;;;;39.25;35.00;32.00;28.70;;;;;;708616;27;5815;-78
2021/09/15 01:50:31;;;;;;;;;35.75;32.00;31.90;28.80;;;;;;706918;27;6551;-78
2021/09/15 01:50:52;;;;;;;;;34.00;32.00;31.90;28.90;;;;;;705393;27;6093;-78
2021/09/15 01:51:12;;;;;;;;;36.75;33.00;31.90;28.00;;;;;;705199;27;5873;-75
2021/09/15 01:51:33;;;;;;;;;36.00;31.75;31.90;28.80;;;;;;705360;27;5819;-76
2021/09/15 01:51:54;;;;;;;;;40.00;35.33;31.90;28.70;;;;;;705155;27;6355;-75
2021/09/15 01:52:16;;;;;;;;;35.00;33.00;31.90;28.60;;;;;;705516;27;6318;-76
2021/09/15 01:52:38;;;;;;;;;37.40;33.00;31.90;28.50;;;;;;705214;27;6907;-76